sensor_id;sensor_type;location;lat;lon;timestamp;pressure;altitude;pressure_sealevel;temperature;humidity
77077;BME280;66003;52.286;104.306;2022-12-29T00:02:10;96706.09;;;-6.50;72.38
77077;BME280;66003;52.286;104.306;2022-12-29T00:04:36;96721.19;;;-6.46;72.44
77077;BME280;66003;52.286;104.306;2022-12-29T00:07:02;96682.88;;;-6.76;73.06
77077;BME280;66003;52.286;104.306;2022-12-29T00:09:31;96664.72;;;-6.84;73.06
77077;BME280;66003;52.286;104.306;2022-12-29T00:11:58;96684.81;;;-6.78;72.78
77077;BME280;66003;52.286;104.306;2022-12-29T00:14:25;96707.06;;;-6.51;72.10
77077;BME280;66003;52.286;104.306;2022-12-29T00:17:09;96706.25;;;-6.60;72.14
77077;BME280;66003;52.286;104.306;2022-12-29T00:19:36;96727.72;;;-6.50;72.06
77077;BME280;66003;52.286;104.306;2022-12-29T00:22:20;96731.28;;;-6.51;71.92
77077;BME280;66003;52.286;104.306;2022-12-29T00:25:07;96729.34;;;-6.49;71.91
77077;BME280;66003;52.286;104.306;2022-12-29T00:27:52;96732.56;;;-6.55;71.83
77077;BME280;66003;52.286;104.306;2022-12-29T00:30:36;96728.19;;;-6.63;72.22
77077;BME280;66003;52.286;104.306;2022-12-29T00:33:22;96734.22;;;-6.62;72.52
77077;BME280;66003;52.286;104.306;2022-12-29T00:36:28;96746.19;;;-6.69;74.22
77077;BME280;66003;52.286;104.306;2022-12-29T00:39:09;96711.28;;;-6.91;73.28
77077;BME280;66003;52.286;104.306;2022-12-29T00:41:54;96752.22;;;-6.69;72.36
77077;BME280;66003;52.286;104.306;2022-12-29T00:44:39;96735.97;;;-6.87;72.75
77077;BME280;66003;52.286;104.306;2022-12-29T00:47:05;96777.53;;;-6.71;73.81
77077;BME280;66003;52.286;104.306;2022-12-29T00:49:31;96773.97;;;-6.78;74.75
77077;BME280;66003;52.286;104.306;2022-12-29T00:51:59;96775.75;;;-6.78;73.46
77077;BME280;66003;52.286;104.306;2022-12-29T00:54:26;96745.72;;;-6.89;72.06
77077;BME280;66003;52.286;104.306;2022-12-29T00:56:52;96772.28;;;-7.03;65.33
77077;BME280;66003;52.286;104.306;2022-12-29T00:59:19;96786.81;;;-7.35;66.89
77077;BME280;66003;52.286;104.306;2022-12-29T01:01:46;96802.94;;;-7.83;64.07
77077;BME280;66003;52.286;104.306;2022-12-29T01:04:13;96754.47;;;-8.42;64.74
77077;BME280;66003;52.286;104.306;2022-12-29T01:06:40;96775.56;;;-8.72;64.93
77077;BME280;66003;52.286;104.306;2022-12-29T01:09:07;96787.19;;;-8.94;65.87
77077;BME280;66003;52.286;104.306;2022-12-29T01:11:52;96772.50;;;-9.39;67.72
77077;BME280;66003;52.286;104.306;2022-12-29T01:14:19;96831.13;;;-9.30;68.73
77077;BME280;66003;52.286;104.306;2022-12-29T01:16:45;96792.41;;;-9.76;68.52
77077;BME280;66003;52.286;104.306;2022-12-29T01:19:13;96832.34;;;-9.61;67.27
77077;BME280;66003;52.286;104.306;2022-12-29T01:21:39;96819.28;;;-9.97;66.72
77077;BME280;66003;52.286;104.306;2022-12-29T01:24:05;96777.09;;;-10.34;67.29
77077;BME280;66003;52.286;104.306;2022-12-29T01:26:32;96844.47;;;-10.08;65.36
77077;BME280;66003;52.286;104.306;2022-12-29T01:28:58;96855.59;;;-9.98;66.17
77077;BME280;66003;52.286;104.306;2022-12-29T01:31:24;96857.91;;;-9.95;66.19
77077;BME280;66003;52.286;104.306;2022-12-29T01:33:50;96823.69;;;-10.16;66.89
77077;BME280;66003;52.286;104.306;2022-12-29T01:36:17;96832.13;;;-10.24;66.69
77077;BME280;66003;52.286;104.306;2022-12-29T01:38:44;96880.09;;;-10.12;64.07
77077;BME280;66003;52.286;104.306;2022-12-29T01:41:12;96883.09;;;-10.26;64.43
77077;BME280;66003;52.286;104.306;2022-12-29T01:43:56;96887.31;;;-10.25;66.20
77077;BME280;66003;52.286;104.306;2022-12-29T01:49:19;96911.81;;;-10.39;66.08
77077;BME280;66003;52.286;104.306;2022-12-29T01:52:13;96892.06;;;-10.49;64.16
77077;BME280;66003;52.286;104.306;2022-12-29T01:54:45;96913.16;;;-10.35;63.79
77077;BME280;66003;52.286;104.306;2022-12-29T01:57:19;96879.84;;;-10.47;64.01
77077;BME280;66003;52.286;104.306;2022-12-29T01:59:55;96886.00;;;-10.29;64.24
77077;BME280;66003;52.286;104.306;2022-12-29T02:02:22;96927.13;;;-9.99;63.85
77077;BME280;66003;52.286;104.306;2022-12-29T02:04:49;96930.00;;;-9.82;63.18
77077;BME280;66003;52.286;104.306;2022-12-29T02:07:21;96912.41;;;-9.79;62.07
77077;BME280;66003;52.286;104.306;2022-12-29T02:09:53;96929.91;;;-9.54;61.45
77077;BME280;66003;52.286;104.306;2022-12-29T02:12:21;96935.19;;;-9.36;61.39
77077;BME280;66003;52.286;104.306;2022-12-29T02:14:51;96886.22;;;-9.47;60.20
77077;BME280;66003;52.286;104.306;2022-12-29T02:17:39;96928.53;;;-8.74;59.14
77077;BME280;66003;52.286;104.306;2022-12-29T02:20:25;96929.16;;;-8.09;57.27
77077;BME280;66003;52.286;104.306;2022-12-29T02:31:46;96884.63;;;-5.78;51.42
77077;BME280;66003;52.286;104.306;2022-12-29T02:46:17;96927.59;;;-5.74;50.25
77077;BME280;66003;52.286;104.306;2022-12-29T02:51:23;96933.44;;;-6.21;51.03
77077;BME280;66003;52.286;104.306;2022-12-29T02:53:52;96899.81;;;-6.72;51.54
77077;BME280;66003;52.286;104.306;2022-12-29T02:56:37;96932.31;;;-6.76;52.27
77077;BME280;66003;52.286;104.306;2022-12-29T02:59:03;96927.38;;;-6.87;52.88
77077;BME280;66003;52.286;104.306;2022-12-29T03:10:12;96940.50;;;-6.97;53.40
77077;BME280;66003;52.286;104.306;2022-12-29T03:15:42;96939.88;;;-6.83;53.70
77077;BME280;66003;52.286;104.306;2022-12-29T03:18:39;96942.88;;;-6.70;54.22
77077;BME280;66003;52.286;104.306;2022-12-29T03:23:41;96882.94;;;-6.68;53.44
77077;BME280;66003;52.286;104.306;2022-12-29T03:26:11;96914.09;;;-6.18;53.00
77077;BME280;66003;52.286;104.306;2022-12-29T03:28:52;96888.59;;;-6.14;52.21
77077;BME280;66003;52.286;104.306;2022-12-29T03:31:19;96913.94;;;-6.00;52.70
77077;BME280;66003;52.286;104.306;2022-12-29T03:33:47;96918.34;;;-6.01;52.21
77077;BME280;66003;52.286;104.306;2022-12-29T03:36:24;96915.72;;;-6.17;52.43
77077;BME280;66003;52.286;104.306;2022-12-29T03:39:12;96910.50;;;-6.25;53.34
77077;BME280;66003;52.286;104.306;2022-12-29T03:41:41;96894.56;;;-6.38;52.28
77077;BME280;66003;52.286;104.306;2022-12-29T03:44:11;96874.19;;;-6.59;52.45
77077;BME280;66003;52.286;104.306;2022-12-29T03:46:38;96890.50;;;-6.33;53.81
77077;BME280;66003;52.286;104.306;2022-12-29T03:49:04;96879.28;;;-6.41;52.73
77077;BME280;66003;52.286;104.306;2022-12-29T03:51:30;96903.03;;;-6.20;52.81
77077;BME280;66003;52.286;104.306;2022-12-29T03:53:56;96854.41;;;-6.44;52.17
77077;BME280;66003;52.286;104.306;2022-12-29T03:56:22;96898.84;;;-5.97;52.46
77077;BME280;66003;52.286;104.306;2022-12-29T03:58:49;96894.44;;;-5.80;52.84
77077;BME280;66003;52.286;104.306;2022-12-29T04:01:15;96898.13;;;-5.66;51.83
77077;BME280;66003;52.286;104.306;2022-12-29T04:03:42;96881.19;;;-5.54;51.59
77077;BME280;66003;52.286;104.306;2022-12-29T04:06:08;96847.53;;;-5.64;51.43
77077;BME280;66003;52.286;104.306;2022-12-29T04:08:34;96855.97;;;-5.54;51.31
77077;BME280;66003;52.286;104.306;2022-12-29T04:11:00;96781.94;;;-5.98;51.04
77077;BME280;66003;52.286;104.306;2022-12-29T04:13:26;96889.47;;;-5.26;50.69
77077;BME280;66003;52.286;104.306;2022-12-29T04:15:52;96889.75;;;-5.13;51.92
77077;BME280;66003;52.286;104.306;2022-12-29T04:18:18;96848.13;;;-5.29;51.54
77077;BME280;66003;52.286;104.306;2022-12-29T04:20:44;96847.28;;;-5.22;50.96
77077;BME280;66003;52.286;104.306;2022-12-29T04:23:26;96843.03;;;-5.15;52.09
77077;BME280;66003;52.286;104.306;2022-12-29T04:25:53;96839.81;;;-5.25;50.72
77077;BME280;66003;52.286;104.306;2022-12-29T04:28:19;96852.47;;;-5.14;50.73
77077;BME280;66003;52.286;104.306;2022-12-29T04:30:45;96842.88;;;-5.13;51.08
77077;BME280;66003;52.286;104.306;2022-12-29T04:33:12;96861.06;;;-5.05;51.17
77077;BME280;66003;52.286;104.306;2022-12-29T04:35:39;96847.38;;;-5.07;51.80
77077;BME280;66003;52.286;104.306;2022-12-29T04:38:05;96862.53;;;-5.02;51.65
77077;BME280;66003;52.286;104.306;2022-12-29T04:40:31;96849.25;;;-5.24;51.41
77077;BME280;66003;52.286;104.306;2022-12-29T04:42:57;96865.50;;;-5.14;51.99
77077;BME280;66003;52.286;104.306;2022-12-29T04:45:23;96817.88;;;-5.38;52.03
77077;BME280;66003;52.286;104.306;2022-12-29T04:47:49;96805.50;;;-5.36;52.37
77077;BME280;66003;52.286;104.306;2022-12-29T04:50:15;96836.72;;;-5.20;52.50
77077;BME280;66003;52.286;104.306;2022-12-29T04:52:41;96814.78;;;-5.42;52.21
77077;BME280;66003;52.286;104.306;2022-12-29T04:55:08;96843.56;;;-5.27;52.81
77077;BME280;66003;52.286;104.306;2022-12-29T04:57:34;96847.75;;;-5.18;52.02
77077;BME280;66003;52.286;104.306;2022-12-29T05:00:00;96852.44;;;-5.05;53.10
77077;BME280;66003;52.286;104.306;2022-12-29T05:02:27;96818.31;;;-5.27;54.01
77077;BME280;66003;52.286;104.306;2022-12-29T05:04:53;96859.97;;;-5.11;53.67
77077;BME280;66003;52.286;104.306;2022-12-29T05:07:19;96825.72;;;-5.47;53.93
77077;BME280;66003;52.286;104.306;2022-12-29T05:09:45;96834.34;;;-5.46;53.99
77077;BME280;66003;52.286;104.306;2022-12-29T05:12:11;96828.44;;;-5.40;55.12
77077;BME280;66003;52.286;104.306;2022-12-29T05:14:37;96798.13;;;-5.72;54.94
77077;BME280;66003;52.286;104.306;2022-12-29T05:17:03;96812.25;;;-5.66;55.95
77077;BME280;66003;52.286;104.306;2022-12-29T05:19:29;96811.00;;;-5.78;56.16
77077;BME280;66003;52.286;104.306;2022-12-29T05:21:56;96813.75;;;-5.80;56.25
77077;BME280;66003;52.286;104.306;2022-12-29T05:24:22;96862.19;;;-5.55;56.44
77077;BME280;66003;52.286;104.306;2022-12-29T05:26:48;96818.94;;;-5.72;56.37
77077;BME280;66003;52.286;104.306;2022-12-29T05:29:14;96802.69;;;-5.82;56.54
77077;BME280;66003;52.286;104.306;2022-12-29T05:31:41;96848.53;;;-5.57;56.80
77077;BME280;66003;52.286;104.306;2022-12-29T05:34:10;96811.00;;;-5.78;57.36
77077;BME280;66003;52.286;104.306;2022-12-29T05:36:36;96821.06;;;-5.75;57.66
77077;BME280;66003;52.286;104.306;2022-12-29T05:39:03;96811.47;;;-5.83;57.93
77077;BME280;66003;52.286;104.306;2022-12-29T05:41:29;96781.13;;;-5.99;57.63
77077;BME280;66003;52.286;104.306;2022-12-29T05:43:55;96816.66;;;-5.75;57.76
77077;BME280;66003;52.286;104.306;2022-12-29T05:46:21;96811.09;;;-5.64;57.08
77077;BME280;66003;52.286;104.306;2022-12-29T05:48:47;96780.69;;;-5.63;56.99
77077;BME280;66003;52.286;104.306;2022-12-29T05:51:13;96821.41;;;-5.23;56.78
77077;BME280;66003;52.286;104.306;2022-12-29T05:53:39;96753.63;;;-5.54;56.42
77077;BME280;66003;52.286;104.306;2022-12-29T05:56:06;96816.94;;;-5.06;56.67
77077;BME280;66003;52.286;104.306;2022-12-29T05:58:32;96826.00;;;-4.94;56.07
77077;BME280;66003;52.286;104.306;2022-12-29T06:00:58;96816.88;;;-4.90;56.24
77077;BME280;66003;52.286;104.306;2022-12-29T06:03:24;96804.00;;;-4.92;56.08
77077;BME280;66003;52.286;104.306;2022-12-29T06:05:50;96799.09;;;-4.87;56.21
77077;BME280;66003;52.286;104.306;2022-12-29T06:08:16;96787.88;;;-4.87;56.53
77077;BME280;66003;52.286;104.306;2022-12-29T06:10:42;96785.59;;;-4.90;56.20
77077;BME280;66003;52.286;104.306;2022-12-29T06:13:09;96709.47;;;-5.31;56.04
77077;BME280;66003;52.286;104.306;2022-12-29T06:15:35;96817.03;;;-4.61;56.36
77077;BME280;66003;52.286;104.306;2022-12-29T06:18:01;96778.09;;;-4.85;56.18
77077;BME280;66003;52.286;104.306;2022-12-29T06:20:28;96765.41;;;-4.88;56.66
77077;BME280;66003;52.286;104.306;2022-12-29T06:22:54;96779.19;;;-4.80;56.26
77077;BME280;66003;52.286;104.306;2022-12-29T06:25:20;96805.59;;;-4.60;56.20
77077;BME280;66003;52.286;104.306;2022-12-29T06:27:46;96799.06;;;-4.56;56.83
77077;BME280;66003;52.286;104.306;2022-12-29T06:30:13;96807.88;;;-4.57;56.21
77077;BME280;66003;52.286;104.306;2022-12-29T06:32:40;96759.31;;;-4.81;55.92
77077;BME280;66003;52.286;104.306;2022-12-29T06:35:06;96769.66;;;-4.64;56.06
77077;BME280;66003;52.286;104.306;2022-12-29T06:37:33;96772.09;;;-4.63;55.50
77077;BME280;66003;52.286;104.306;2022-12-29T06:39:59;96783.44;;;-4.56;55.83
77077;BME280;66003;52.286;104.306;2022-12-29T06:42:25;96800.19;;;-4.50;55.92
77077;BME280;66003;52.286;104.306;2022-12-29T06:44:51;96792.41;;;-4.58;56.47
77077;BME280;66003;52.286;104.306;2022-12-29T06:47:18;96805.00;;;-4.62;56.33
77077;BME280;66003;52.286;104.306;2022-12-29T06:49:45;96754.16;;;-4.89;57.65
77077;BME280;66003;52.286;104.306;2022-12-29T06:52:11;96731.81;;;-5.14;57.96
77077;BME280;66003;52.286;104.306;2022-12-29T06:54:37;96790.13;;;-4.84;57.46
77077;BME280;66003;52.286;104.306;2022-12-29T06:57:03;96794.16;;;-4.74;58.28
77077;BME280;66003;52.286;104.306;2022-12-29T06:59:29;96795.81;;;-4.81;58.03
77077;BME280;66003;52.286;104.306;2022-12-29T07:01:55;96803.63;;;-4.81;58.26
77077;BME280;66003;52.286;104.306;2022-12-29T07:04:21;96796.28;;;-4.77;58.65
77077;BME280;66003;52.286;104.306;2022-12-29T07:06:47;96765.13;;;-5.01;58.77
77077;BME280;66003;52.286;104.306;2022-12-29T07:09:14;96788.84;;;-4.88;58.97
77077;BME280;66003;52.286;104.306;2022-12-29T07:11:40;96774.09;;;-5.04;58.83
77077;BME280;66003;52.286;104.306;2022-12-29T07:14:06;96775.72;;;-5.03;59.07
77077;BME280;66003;52.286;104.306;2022-12-29T07:16:32;96765.84;;;-5.07;58.57
77077;BME280;66003;52.286;104.306;2022-12-29T07:18:59;96806.09;;;-4.87;58.95
77077;BME280;66003;52.286;104.306;2022-12-29T07:21:25;96796.13;;;-4.84;59.03
77077;BME280;66003;52.286;104.306;2022-12-29T07:23:52;96807.03;;;-4.80;58.91
77077;BME280;66003;52.286;104.306;2022-12-29T07:26:19;96777.19;;;-5.00;58.99
77077;BME280;66003;52.286;104.306;2022-12-29T07:28:45;96774.91;;;-5.03;58.96
77077;BME280;66003;52.286;104.306;2022-12-29T07:31:16;96765.34;;;-5.11;59.61
77077;BME280;66003;52.286;104.306;2022-12-29T07:33:43;96814.56;;;-4.85;59.79
77077;BME280;66003;52.286;104.306;2022-12-29T07:36:10;96811.16;;;-4.86;59.68
77077;BME280;66003;52.286;104.306;2022-12-29T07:38:37;96792.66;;;-4.99;59.99
77077;BME280;66003;52.286;104.306;2022-12-29T07:41:03;96809.53;;;-4.87;59.63
77077;BME280;66003;52.286;104.306;2022-12-29T07:43:29;96768.28;;;-5.14;59.87
77077;BME280;66003;52.286;104.306;2022-12-29T07:45:55;96775.94;;;-5.13;60.06
77077;BME280;66003;52.286;104.306;2022-12-29T07:48:21;96814.44;;;-4.92;60.01
77077;BME280;66003;52.286;104.306;2022-12-29T07:50:48;96798.91;;;-5.08;60.48
77077;BME280;66003;52.286;104.306;2022-12-29T07:53:14;96786.06;;;-5.18;60.46
77077;BME280;66003;52.286;104.306;2022-12-29T07:55:40;96766.88;;;-5.25;60.29
77077;BME280;66003;52.286;104.306;2022-12-29T07:58:07;96801.31;;;-5.06;60.26
77077;BME280;66003;52.286;104.306;2022-12-29T08:00:33;96801.66;;;-5.10;60.61
77077;BME280;66003;52.286;104.306;2022-12-29T08:02:59;96831.22;;;-4.94;60.75
77077;BME280;66003;52.286;104.306;2022-12-29T08:05:25;96808.66;;;-5.10;60.51
77077;BME280;66003;52.286;104.306;2022-12-29T08:07:51;96850.91;;;-4.92;60.46
77077;BME280;66003;52.286;104.306;2022-12-29T08:10:17;96848.94;;;-4.90;60.66
77077;BME280;66003;52.286;104.306;2022-12-29T08:12:44;96851.78;;;-4.99;60.83
77077;BME280;66003;52.286;104.306;2022-12-29T08:15:11;96842.53;;;-5.18;61.11
77077;BME280;66003;52.286;104.306;2022-12-29T08:17:37;96849.25;;;-5.24;61.89
77077;BME280;66003;52.286;104.306;2022-12-29T08:20:04;96809.63;;;-5.58;61.76
77077;BME280;66003;52.286;104.306;2022-12-29T08:22:31;96804.63;;;-5.68;61.43
77077;BME280;66003;52.286;104.306;2022-12-29T08:24:57;96790.38;;;-5.88;61.63
77077;BME280;66003;52.286;104.306;2022-12-29T08:27:23;96817.34;;;-5.81;61.54
77077;BME280;66003;52.286;104.306;2022-12-29T08:29:49;96826.31;;;-5.92;61.89
77077;BME280;66003;52.286;104.306;2022-12-29T08:32:15;96855.06;;;-5.85;62.14
77077;BME280;66003;52.286;104.306;2022-12-29T08:34:42;96865.00;;;-5.89;62.46
77077;BME280;66003;52.286;104.306;2022-12-29T08:37:08;96832.97;;;-6.13;62.49
77077;BME280;66003;52.286;104.306;2022-12-29T08:39:34;96823.25;;;-6.28;63.18
77077;BME280;66003;52.286;104.306;2022-12-29T08:42:00;96817.38;;;-6.30;63.06
77077;BME280;66003;52.286;104.306;2022-12-29T08:44:26;96853.78;;;-6.13;63.48
77077;BME280;66003;52.286;104.306;2022-12-29T08:46:52;96858.19;;;-6.14;63.68
77077;BME280;66003;52.286;104.306;2022-12-29T08:49:18;96818.03;;;-6.44;63.59
77077;BME280;66003;52.286;104.306;2022-12-29T08:51:44;96799.00;;;-6.61;63.62
77077;BME280;66003;52.286;104.306;2022-12-29T08:54:10;96860.31;;;-6.26;63.90
77077;BME280;66003;52.286;104.306;2022-12-29T08:56:37;96808.25;;;-6.58;63.81
77077;BME280;66003;52.286;104.306;2022-12-29T08:59:03;96850.69;;;-6.41;63.88
77077;BME280;66003;52.286;104.306;2022-12-29T09:01:29;96816.03;;;-6.66;63.99
77077;BME280;66003;52.286;104.306;2022-12-29T09:03:56;96859.47;;;-6.42;64.13
77077;BME280;66003;52.286;104.306;2022-12-29T09:06:22;96824.16;;;-6.69;64.31
77077;BME280;66003;52.286;104.306;2022-12-29T09:08:48;96815.53;;;-6.70;64.04
77077;BME280;66003;52.286;104.306;2022-12-29T09:11:20;96860.28;;;-6.50;63.62
77077;BME280;66003;52.286;104.306;2022-12-29T09:13:47;96812.28;;;-6.88;64.34
77077;BME280;66003;52.286;104.306;2022-12-29T09:16:15;96826.25;;;-6.81;64.31
77077;BME280;66003;52.286;104.306;2022-12-29T09:18:42;96829.34;;;-6.85;64.36
77077;BME280;66003;52.286;104.306;2022-12-29T09:21:10;96819.56;;;-6.92;64.34
77077;BME280;66003;52.286;104.306;2022-12-29T09:23:37;96832.53;;;-6.92;64.63
77077;BME280;66003;52.286;104.306;2022-12-29T09:26:03;96867.06;;;-6.65;64.50
77077;BME280;66003;52.286;104.306;2022-12-29T09:28:30;96873.38;;;-6.68;64.58
77077;BME280;66003;52.286;104.306;2022-12-29T09:30:56;96864.59;;;-6.75;64.70
77077;BME280;66003;52.286;104.306;2022-12-29T09:33:23;96880.66;;;-6.71;64.44
77077;BME280;66003;52.286;104.306;2022-12-29T09:35:54;96844.88;;;-6.94;64.24
77077;BME280;66003;52.286;104.306;2022-12-29T09:38:20;96840.63;;;-7.03;64.60
77077;BME280;66003;52.286;104.306;2022-12-29T09:40:53;96829.88;;;-7.16;64.79
77077;BME280;66003;52.286;104.306;2022-12-29T09:46:37;96884.50;;;-6.92;64.64
77077;BME280;66003;52.286;104.306;2022-12-29T09:49:28;96895.03;;;-6.93;64.64
77077;BME280;66003;52.286;104.306;2022-12-29T09:52:02;96867.03;;;-7.15;64.28
77077;BME280;66003;52.286;104.306;2022-12-29T09:57:20;96908.13;;;-7.11;64.41
77077;BME280;66003;52.286;104.306;2022-12-29T09:59:50;96867.22;;;-7.43;64.04
77077;BME280;66003;52.286;104.306;2022-12-29T10:02:33;96918.09;;;-7.24;63.92
77077;BME280;66003;52.286;104.306;2022-12-29T10:05:02;96914.97;;;-7.36;63.82
77077;BME280;66003;52.286;104.306;2022-12-29T10:07:52;96917.72;;;-7.37;63.58
77077;BME280;66003;52.286;104.306;2022-12-29T10:10:38;96925.44;;;-7.45;64.09
77077;BME280;66003;52.286;104.306;2022-12-29T10:21:26;96925.84;;;-7.58;63.90
77077;BME280;66003;52.286;104.306;2022-12-29T10:23:56;96912.34;;;-7.61;63.70
77077;BME280;66003;52.286;104.306;2022-12-29T10:26:27;96910.88;;;-7.64;63.87
77077;BME280;66003;52.286;104.306;2022-12-29T10:28:59;96915.47;;;-7.58;63.70
77077;BME280;66003;52.286;104.306;2022-12-29T10:32:10;96910.19;;;-7.66;63.63
77077;BME280;66003;52.286;104.306;2022-12-29T10:34:45;96814.66;;;-8.22;63.61
77077;BME280;66003;52.286;104.306;2022-12-29T10:39:53;96899.13;;;-7.76;63.66
77077;BME280;66003;52.286;104.306;2022-12-29T10:42:32;96927.41;;;-7.65;63.94
77077;BME280;66003;52.286;104.306;2022-12-29T10:45:00;96909.63;;;-7.78;64.01
77077;BME280;66003;52.286;104.306;2022-12-29T10:47:33;96922.97;;;-7.73;64.88
77077;BME280;66003;52.286;104.306;2022-12-29T10:50:02;96934.25;;;-7.82;66.17
77077;BME280;66003;52.286;104.306;2022-12-29T10:52:29;96872.41;;;-8.12;65.57
77077;BME280;66003;52.286;104.306;2022-12-29T10:55:02;96937.53;;;-7.80;64.29
77077;BME280;66003;52.286;104.306;2022-12-29T10:57:36;96928.41;;;-8.02;66.13
77077;BME280;66003;52.286;104.306;2022-12-29T11:00:21;96931.00;;;-8.02;64.67
77077;BME280;66003;52.286;104.306;2022-12-29T11:07:43;96920.41;;;-8.26;64.22
77077;BME280;66003;52.286;104.306;2022-12-29T11:10:36;96901.91;;;-8.49;65.68
77077;BME280;66003;52.286;104.306;2022-12-29T11:15:39;96938.66;;;-8.35;66.67
77077;BME280;66003;52.286;104.306;2022-12-29T11:21:05;96916.00;;;-8.51;65.42
77077;BME280;66003;52.286;104.306;2022-12-29T11:23:40;96956.50;;;-8.32;64.31
77077;BME280;66003;52.286;104.306;2022-12-29T11:26:21;96959.22;;;-8.52;64.04
77077;BME280;66003;52.286;104.306;2022-12-29T11:31:45;96930.69;;;-8.97;64.39
77077;BME280;66003;52.286;104.306;2022-12-29T11:34:38;96965.91;;;-8.77;64.43
77077;BME280;66003;52.286;104.306;2022-12-29T11:37:13;96970.16;;;-8.85;64.96
77077;BME280;66003;52.286;104.306;2022-12-29T11:42:18;96959.72;;;-9.03;65.20
77077;BME280;66003;52.286;104.306;2022-12-29T11:44:47;96993.31;;;-8.84;64.75
77077;BME280;66003;52.286;104.306;2022-12-29T11:47:24;96998.19;;;-8.81;64.90
77077;BME280;66003;52.286;104.306;2022-12-29T11:49:53;97028.88;;;-8.76;65.55
77077;BME280;66003;52.286;104.306;2022-12-29T11:52:23;96985.75;;;-9.04;64.77
77077;BME280;66003;52.286;104.306;2022-12-29T11:54:50;97008.84;;;-8.84;64.86
77077;BME280;66003;52.286;104.306;2022-12-29T11:57:18;97027.78;;;-8.83;63.50
77077;BME280;66003;52.286;104.306;2022-12-29T11:59:52;97034.91;;;-8.85;62.95
77077;BME280;66003;52.286;104.306;2022-12-29T12:02:32;97038.19;;;-9.02;63.44
77077;BME280;66003;52.286;104.306;2022-12-29T12:05:18;96994.03;;;-9.38;62.58
77077;BME280;66003;52.286;104.306;2022-12-29T12:07:52;97000.72;;;-9.45;62.80
77077;BME280;66003;52.286;104.306;2022-12-29T12:10:26;97035.66;;;-9.22;63.80
77077;BME280;66003;52.286;104.306;2022-12-29T12:15:40;97041.22;;;-9.17;63.59
77077;BME280;66003;52.286;104.306;2022-12-29T12:18:23;97025.69;;;-9.17;63.24
77077;BME280;66003;52.286;104.306;2022-12-29T12:27:09;97016.78;;;-8.85;62.47
77077;BME280;66003;52.286;104.306;2022-12-29T12:35:19;96971.31;;;-8.97;62.36
77077;BME280;66003;52.286;104.306;2022-12-29T12:38:12;97014.16;;;-8.76;62.52
77077;BME280;66003;52.286;104.306;2022-12-29T12:43:45;97055.69;;;-8.67;61.99
77077;BME280;66003;52.286;104.306;2022-12-29T12:54:58;97120.19;;;-8.74;62.44
77077;BME280;66003;52.286;104.306;2022-12-29T12:57:53;97113.22;;;-8.83;62.81
77077;BME280;66003;52.286;104.306;2022-12-29T13:00:23;97125.53;;;-8.85;62.62
77077;BME280;66003;52.286;104.306;2022-12-29T13:03:10;97126.34;;;-8.94;60.86
77077;BME280;66003;52.286;104.306;2022-12-29T13:16:41;97137.91;;;-8.79;60.48
77077;BME280;66003;52.286;104.306;2022-12-29T13:22:02;97145.16;;;-9.02;57.67
77077;BME280;66003;52.286;104.306;2022-12-29T13:25:02;97116.72;;;-9.21;58.11
77077;BME280;66003;52.286;104.306;2022-12-29T13:30:17;97118.88;;;-9.26;59.89
77077;BME280;66003;52.286;104.306;2022-12-29T13:36:03;97143.00;;;-9.45;59.41
77077;BME280;66003;52.286;104.306;2022-12-29T13:38:38;97169.69;;;-9.35;58.94
77077;BME280;66003;52.286;104.306;2022-12-29T13:41:11;97177.00;;;-9.40;58.06
77077;BME280;66003;52.286;104.306;2022-12-29T13:43:42;97164.88;;;-9.59;58.76
77077;BME280;66003;52.286;104.306;2022-12-29T13:46:20;97198.78;;;-9.42;59.95
77077;BME280;66003;52.286;104.306;2022-12-29T13:48:58;97208.88;;;-9.49;58.23
77077;BME280;66003;52.286;104.306;2022-12-29T13:51:28;97212.25;;;-9.58;58.70
77077;BME280;66003;52.286;104.306;2022-12-29T13:54:09;97207.34;;;-9.61;59.05
77077;BME280;66003;52.286;104.306;2022-12-29T13:56:51;97216.28;;;-9.75;58.51
77077;BME280;66003;52.286;104.306;2022-12-29T13:59:39;97217.41;;;-9.68;59.95
77077;BME280;66003;52.286;104.306;2022-12-29T14:07:48;97227.31;;;-9.73;60.31
77077;BME280;66003;52.286;104.306;2022-12-29T14:10:45;97243.25;;;-9.68;60.74
77077;BME280;66003;52.286;104.306;2022-12-29T14:15:45;97230.56;;;-9.80;61.39
77077;BME280;66003;52.286;104.306;2022-12-29T14:18:16;97251.69;;;-9.66;61.45
77077;BME280;66003;52.286;104.306;2022-12-29T14:23:44;97256.22;;;-9.58;61.66
77077;BME280;66003;52.286;104.306;2022-12-29T14:29:22;97212.59;;;-9.82;61.86
77077;BME280;66003;52.286;104.306;2022-12-29T14:32:01;97214.09;;;-9.79;61.37
77077;BME280;66003;52.286;104.306;2022-12-29T14:34:29;97268.03;;;-9.56;61.59
77077;BME280;66003;52.286;104.306;2022-12-29T14:40:17;97269.91;;;-9.67;61.23
77077;BME280;66003;52.286;104.306;2022-12-29T14:42:45;97279.47;;;-9.68;61.54
77077;BME280;66003;52.286;104.306;2022-12-29T14:47:49;97237.53;;;-10.02;60.40
77077;BME280;66003;52.286;104.306;2022-12-29T14:53:05;97270.16;;;-9.80;60.27
77077;BME280;66003;52.286;104.306;2022-12-29T14:58:47;97246.44;;;-9.85;60.52
77077;BME280;66003;52.286;104.306;2022-12-29T15:04:03;97295.44;;;-9.53;60.47
77077;BME280;66003;52.286;104.306;2022-12-29T15:06:31;97290.44;;;-9.45;60.34
77077;BME280;66003;52.286;104.306;2022-12-29T15:11:59;97246.97;;;-9.51;59.68
77077;BME280;66003;52.286;104.306;2022-12-29T15:14:36;97300.03;;;-9.17;59.30
77077;BME280;66003;52.286;104.306;2022-12-29T15:17:30;97296.25;;;-9.03;59.60
77077;BME280;66003;52.286;104.306;2022-12-29T15:19:58;97268.03;;;-9.16;58.80
77077;BME280;66003;52.286;104.306;2022-12-29T15:22:26;97246.91;;;-9.21;58.93
77077;BME280;66003;52.286;104.306;2022-12-29T15:24:54;97279.78;;;-8.92;59.13
77077;BME280;66003;52.286;104.306;2022-12-29T15:27:23;97287.97;;;-8.87;58.70
77077;BME280;66003;52.286;104.306;2022-12-29T15:29:58;97267.09;;;-9.05;58.55